Time;durP1;ratioP1;P1;durP2;ratioP2;P2;SDS_P1;SDS_P2;PMS_P1;PMS_P2;Temp;Humidity;BMP_temperature;BMP_pressure;BME280_temperature;BME280_humidity;BME280_pressure;Samples;Min_cycle;Max_cycle;Signal;HPM_P1;HPM_P2
2022/07/05 00:01:31;;;;;;;10.30;3.63;;;;;;;18.36;57.67;101626.69;5093212;28;20039;-52
2022/07/05 00:03:58;;;;;;;12.02;3.63;;;;;;;18.32;57.37;101627.22;5092638;28;20048;-51
2022/07/05 00:06:25;;;;;;;11.90;4.00;;;;;;;18.34;57.90;101619.84;5093153;28;20154;-51
2022/07/05 00:08:51;;;;;;;10.10;3.72;;;;;;;18.30;57.53;101627.44;5093104;28;20405;-50
2022/07/05 00:11:18;;;;;;;11.35;3.70;;;;;;;18.34;57.63;101626.06;5097590;28;20036;-53
2022/07/05 00:13:45;;;;;;;9.35;3.47;;;;;;;18.29;57.17;101633.81;5112540;28;20043;-50
2022/07/05 00:16:11;;;;;;;12.18;3.53;;;;;;;18.23;57.19;101626.50;5112963;28;20047;-49
2022/07/05 00:18:38;;;;;;;9.68;3.70;;;;;;;18.29;57.27;101623.06;5112561;28;20093;-50
2022/07/05 00:21:05;;;;;;;9.55;3.95;;;;;;;18.25;57.04;101627.16;5113388;28;20127;-53
2022/07/05 00:23:32;;;;;;;12.63;3.67;;;;;;;18.28;57.18;101624.13;5113531;28;20043;-50
2022/07/05 00:25:58;;;;;;;10.93;3.33;;;;;;;18.22;57.45;101622.13;5111933;28;20621;-53
2022/07/05 00:28:25;;;;;;;12.18;3.28;;;;;;;18.26;57.43;101625.28;5113668;28;20418;-53
2022/07/05 00:30:52;;;;;;;14.20;3.55;;;;;;;18.13;57.12;101625.91;5094391;28;20401;-50
2022/07/05 00:33:19;;;;;;;14.00;3.70;;;;;;;18.26;57.28;101631.50;5090057;28;20078;-53
2022/07/05 00:35:45;;;;;;;13.80;3.85;;;;;;;18.23;57.51;101629.19;5093080;28;20478;-53
2022/07/05 00:38:12;;;;;;;10.73;3.67;;;;;;;18.18;57.19;101626.22;5093031;28;20048;-47
2022/07/05 00:40:39;;;;;;;11.20;3.35;;;;;;;18.14;57.37;101628.44;5093077;28;20051;-50
2022/07/05 00:43:06;;;;;;;11.13;3.60;;;;;;;18.08;57.74;101631.84;5091549;28;20036;-50
2022/07/05 00:45:33;;;;;;;10.95;3.55;;;;;;;18.10;57.65;101632.50;5092930;28;20048;-50
2022/07/05 00:48:00;;;;;;;13.50;3.67;;;;;;;18.01;58.64;101626.38;5092592;28;20052;-49
2022/07/05 00:50:26;;;;;;;12.60;4.00;;;;;;;18.01;58.87;101630.91;5092637;28;20546;-52
2022/07/05 00:52:55;;;;;;;15.32;4.15;;;;;;;17.94;58.52;101627.28;5092748;28;20048;-51
2022/07/05 00:55:22;;;;;;;13.63;3.85;;;;;;;17.93;59.02;101629.13;5092697;28;20056;-52
2022/07/05 00:57:50;;;;;;;12.18;3.90;;;;;;;17.97;58.63;101634.94;5096296;28;20050;-49
2022/07/05 01:00:17;;;;;;;9.68;3.97;;;;;;;18.01;58.79;101633.59;5096031;28;20051;-48
2022/07/05 01:02:45;;;;;;;13.88;4.10;;;;;;;17.97;59.32;101630.44;5095881;28;20040;-49
2022/07/05 01:05:12;;;;;;;14.60;4.18;;;;;;;17.94;59.19;101635.34;5096449;28;20123;-49
2022/07/05 01:07:38;;;;;;;16.98;4.28;;;;;;;17.89;58.94;101627.81;5096083;28;20063;-49
2022/07/05 01:10:06;;;;;;;15.15;4.00;;;;;;;17.94;59.63;101648.75;5096022;28;20044;-49
2022/07/05 01:12:32;;;;;;;12.43;3.67;;;;;;;17.97;59.45;101641.19;5095759;28;20351;-50
2022/07/05 01:14:59;;;;;;;13.32;4.28;;;;;;;17.92;59.06;101632.81;5096175;28;20044;-48
2022/07/05 01:17:27;;;;;;;13.77;3.70;;;;;;;17.98;59.42;101631.25;5096008;28;20048;-50
2022/07/05 01:19:54;;;;;;;9.20;3.38;;;;;;;17.87;59.62;101632.53;5096041;28;20047;-49
2022/07/05 01:22:26;;;;;;;10.60;3.70;;;;;;;17.90;59.37;101631.31;5095693;28;20066;-49
2022/07/05 01:24:53;;;;;;;13.55;4.05;;;;;;;17.82;59.24;101634.88;5096093;28;20131;-49
2022/07/05 01:27:21;;;;;;;15.18;4.15;;;;;;;17.73;59.18;101638.66;5095783;28;20536;-49
2022/07/05 01:29:48;;;;;;;14.63;3.60;;;;;;;17.76;59.42;101632.94;5095786;28;20040;-48
2022/07/05 01:32:16;;;;;;;10.02;3.78;;;;;;;17.64;59.65;101633.34;5095496;28;20044;-50
2022/07/05 01:34:43;;;;;;;13.10;4.05;;;;;;;17.81;59.73;101634.06;5092332;28;20048;-50
2022/07/05 01:37:10;;;;;;;13.65;3.70;;;;;;;17.73;59.49;101642.16;5094969;28;20101;-48
2022/07/05 01:39:38;;;;;;;11.07;4.25;;;;;;;17.65;59.33;101640.38;5095343;28;20443;-51
2022/07/05 01:42:06;;;;;;;11.27;3.83;;;;;;;17.71;59.30;101641.50;5095736;28;20083;-49
2022/07/05 01:44:32;;;;;;;13.13;4.25;;;;;;;17.77;59.40;101637.25;5095338;28;20154;-50
2022/07/05 01:47:05;;;;;;;11.52;4.47;;;;;;;17.80;58.90;101639.59;5095507;28;20105;-50
2022/07/05 01:49:38;;;;;;;14.48;4.38;;;;;;;17.89;58.92;101643.91;5095059;28;20060;-50
2022/07/05 01:52:11;;;;;;;11.90;4.30;;;;;;;17.79;59.39;101648.66;5095367;28;20123;-50
2022/07/05 01:54:39;;;;;;;10.70;4.25;;;;;;;17.76;60.06;101646.34;5094180;28;20498;-51
2022/07/05 01:57:07;;;;;;;12.45;4.40;;;;;;;17.63;60.45;101639.72;5094262;28;20052;-50
2022/07/05 01:59:36;;;;;;;12.93;4.25;;;;;;;17.67;60.25;101640.19;5095367;28;20093;-50
2022/07/05 02:02:04;;;;;;;12.98;4.28;;;;;;;17.67;60.46;101639.38;5094988;28;20105;-49
2022/07/05 02:04:35;;;;;;;12.55;4.70;;;;;;;17.65;60.69;101635.00;5093103;28;20497;-51
2022/07/05 02:07:06;;;;;;;13.45;4.28;;;;;;;17.75;60.68;101631.25;5093632;28;20044;-52
2022/07/05 02:09:33;;;;;;;14.55;4.15;;;;;;;17.83;60.34;101629.34;5095205;28;20048;-51
2022/07/05 02:12:02;;;;;;;12.40;4.60;;;;;;;17.82;59.97;101630.34;5088084;28;20494;-49
2022/07/05 02:14:29;;;;;;;11.50;4.30;;;;;;;17.81;60.38;101633.22;5074441;28;20048;-51
2022/07/05 02:16:56;;;;;;;12.50;4.25;;;;;;;17.72;59.75;101636.97;5073855;28;20074;-50
2022/07/05 02:19:24;;;;;;;12.23;4.60;;;;;;;17.61;60.04;101639.06;5073316;28;20047;-49
2022/07/05 02:21:51;;;;;;;14.38;4.22;;;;;;;17.63;59.44;101634.34;5074414;28;20371;-51
2022/07/05 02:24:21;;;;;;;10.48;4.03;;;;;;;17.70;59.80;101634.50;5074378;28;20076;-50
2022/07/05 02:26:57;;;;;;;15.15;4.10;;;;;;;17.65;59.88;101632.31;5074497;28;20044;-48
2022/07/05 02:29:24;;;;;;;12.15;3.90;;;;;;;17.64;59.93;101621.78;5078349;28;20496;-52
2022/07/05 02:31:52;;;;;;;15.07;4.70;;;;;;;17.63;59.97;101628.16;5094638;28;20036;-52
2022/07/05 02:34:18;;;;;;;12.40;4.05;;;;;;;17.54;60.29;101638.13;5093541;28;20044;-51
2022/07/05 02:36:45;;;;;;;10.48;4.38;;;;;;;17.47;59.64;101629.09;5094715;28;20055;-50
2022/07/05 02:39:13;;;;;;;14.35;4.35;;;;;;;17.53;59.90;101625.69;5094681;28;20051;-51
2022/07/05 02:41:40;;;;;;;12.80;4.30;;;;;;;17.45;59.61;101626.59;5094676;28;20043;-49
2022/07/05 02:44:07;;;;;;;15.10;5.60;;;;;;;17.37;59.41;101625.81;5094581;28;20091;-52
2022/07/05 02:46:34;;;;;;;11.68;4.10;;;;;;;17.31;59.77;101629.22;5092977;28;20409;-51
2022/07/05 02:49:03;;;;;;;12.65;4.15;;;;;;;17.38;59.59;101631.00;5092888;28;20076;-50
2022/07/05 02:51:33;;;;;;;12.18;4.10;;;;;;;17.47;59.62;101626.44;5093009;28;20101;-49
2022/07/05 02:54:00;;;;;;;10.45;4.00;;;;;;;17.46;59.57;101638.16;5094469;28;20052;-48
2022/07/05 02:56:29;;;;;;;15.43;3.83;;;;;;;17.45;59.49;101636.50;5094141;28;20040;-49
2022/07/05 02:58:57;;;;;;;10.75;3.65;;;;;;;17.44;59.85;101641.03;5094447;28;20069;-49
2022/07/05 03:01:25;;;;;;;10.25;3.75;;;;;;;17.50;59.08;101641.31;5094321;28;20127;-50
2022/07/05 03:03:55;;;;;;;10.23;3.85;;;;;;;17.57;58.30;101637.75;5092502;28;20052;-48
2022/07/05 03:06:23;;;;;;;12.50;3.70;;;;;;;17.45;59.14;101642.69;5089837;28;20040;-52
2022/07/05 03:08:50;;;;;;;12.90;4.00;;;;;;;17.50;59.01;101636.81;5094007;28;20052;-47
2022/07/05 03:11:17;;;;;;;11.75;3.90;;;;;;;17.44;59.09;101635.69;5093926;28;20046;-50
2022/07/05 03:13:44;;;;;;;10.90;3.60;;;;;;;17.49;58.41;101642.34;5093815;28;20036;-48
2022/07/05 03:16:11;;;;;;;8.43;3.22;;;;;;;17.42;58.69;101658.31;5093700;28;20040;-50
2022/07/05 03:18:38;;;;;;;10.57;3.35;;;;;;;17.49;58.62;101656.59;5093082;28;20039;-47
2022/07/05 03:21:06;;;;;;;11.60;3.60;;;;;;;17.46;58.85;101655.09;5093682;28;20059;-49
2022/07/05 03:23:35;;;;;;;12.65;3.33;;;;;;;17.43;58.36;101654.63;5093810;28;20560;-49
2022/07/05 03:26:02;;;;;;;8.15;3.40;;;;;;;17.54;58.59;101658.75;5093483;28;20074;-49
2022/07/05 03:28:29;;;;;;;8.48;3.30;;;;;;;17.46;58.42;101659.63;5093693;28;20036;-51
2022/07/05 03:30:59;;;;;;;13.60;3.28;;;;;;;17.49;59.10;101656.59;5093264;28;20047;-51
2022/07/05 03:33:26;;;;;;;13.93;3.47;;;;;;;17.50;58.81;101646.69;5093558;28;20588;-48
2022/07/05 03:35:55;;;;;;;8.48;3.55;;;;;;;17.52;58.73;101650.88;5093299;28;20497;-49
2022/07/05 03:38:23;;;;;;;13.40;3.63;;;;;;;17.49;58.50;101651.22;5093613;28;20511;-50
2022/07/05 03:40:50;;;;;;;12.23;3.72;;;;;;;17.44;58.42;101653.59;5093776;28;20052;-48
2022/07/05 03:43:17;;;;;;;9.75;3.35;;;;;;;17.39;59.13;101647.91;5093561;28;20054;-52
2022/07/05 03:45:43;;;;;;;11.65;3.47;;;;;;;17.29;59.20;101655.38;5093292;28;20481;-49
2022/07/05 03:48:10;;;;;;;16.88;3.60;;;;;;;17.18;59.05;101654.75;5092954;28;20052;-49
2022/07/05 03:50:51;;;;;;;9.70;3.37;;;;;;;17.26;59.41;101653.84;5092285;28;20083;-52
2022/07/05 03:53:18;;;;;;;9.73;3.15;;;;;;;17.36;59.36;101659.03;5091931;28;20298;-51
2022/07/05 03:55:45;;;;;;;9.18;3.35;;;;;;;17.38;59.48;101654.31;5092927;28;20044;-51
2022/07/05 03:58:12;;;;;;;13.55;3.72;;;;;;;17.38;59.91;101649.78;5093370;28;20396;-48
2022/07/05 04:00:40;;;;;;;10.35;3.80;;;;;;;17.36;60.33;101657.16;5093150;28;20048;-51
2022/07/05 04:03:11;;;;;;;13.68;4.40;;;;;;;17.34;60.78;101661.88;5093498;28;20048;-50
2022/07/05 04:05:39;;;;;;;15.13;4.13;;;;;;;17.37;61.34;101658.84;5092264;28;20401;-48
2022/07/05 04:08:06;;;;;;;11.35;4.32;;;;;;;17.38;61.73;101659.69;5092914;28;20406;-48
2022/07/05 04:10:39;;;;;;;13.88;4.15;;;;;;;17.36;60.93;101659.03;5093428;28;20073;-50
2022/07/05 04:13:06;;;;;;;10.15;4.22;;;;;;;17.40;62.01;101653.09;5098422;28;20409;-51
2022/07/05 04:15:33;;;;;;;12.20;4.20;;;;;;;17.35;62.04;101650.13;5113511;28;20044;-52
2022/07/05 04:18:02;;;;;;;12.25;4.10;;;;;;;17.33;62.43;101654.00;5112814;28;20058;-50
2022/07/05 04:20:32;;;;;;;9.50;3.80;;;;;;;17.29;63.08;101660.75;5113568;28;20187;-51
2022/07/05 04:23:00;;;;;;;10.38;4.07;;;;;;;17.27;63.33;101653.69;5113310;28;20046;-48
2022/07/05 04:25:27;;;;;;;12.60;4.55;;;;;;;17.25;63.53;101655.72;5113595;28;20035;-50
2022/07/05 04:28:01;;;;;;;12.57;4.30;;;;;;;17.10;64.53;101657.47;5113500;28;20057;-50
2022/07/05 04:30:30;;;;;;;9.65;4.32;;;;;;;17.14;64.65;101658.78;5113193;28;20051;-49
2022/07/05 04:32:58;;;;;;;14.63;4.45;;;;;;;17.15;64.46;101651.59;5097335;28;20037;-50
2022/07/05 04:35:24;;;;;;;10.88;4.57;;;;;;;17.17;64.45;101657.59;5096842;28;20401;-50
2022/07/05 04:37:53;;;;;;;10.93;4.40;;;;;;;17.07;65.18;101650.59;5096900;28;20447;-49
2022/07/05 04:40:21;;;;;;;12.77;4.28;;;;;;;17.13;65.08;101662.47;5096643;28;20048;-49
2022/07/05 04:42:48;;;;;;;11.40;4.38;;;;;;;17.16;65.05;101658.63;5096694;28;20043;-49
2022/07/05 04:45:16;;;;;;;10.98;4.07;;;;;;;17.16;64.16;101667.50;5096652;28;20048;-51
2022/07/05 04:47:43;;;;;;;9.25;3.80;;;;;;;17.19;62.76;101669.84;5096365;28;20048;-50
2022/07/05 04:50:10;;;;;;;12.90;3.80;;;;;;;17.19;61.74;101677.88;5096141;28;20048;-52
2022/07/05 04:52:37;;;;;;;13.88;3.90;;;;;;;17.20;62.20;101678.72;5096659;28;20036;-51
2022/07/05 04:55:04;;;;;;;11.32;3.58;;;;;;;17.20;61.13;101678.72;5096760;28;20051;-51
2022/07/05 04:57:46;;;;;;;12.48;3.40;;;;;;;17.19;61.38;101683.25;5096351;28;20076;-49
2022/07/05 05:00:13;;;;;;;;;;;;;;;17.23;61.31;101681.03;5096627;28;20051;-48
2022/07/05 05:02:41;;;;;;;16.55;4.07;;;;;;;17.08;62.62;101683.59;5096545;28;19969;-50
2022/07/05 05:05:08;;;;;;;11.35;4.05;;;;;;;17.23;64.26;101691.78;5095837;28;20044;-48
2022/07/05 05:07:37;;;;;;;14.48;4.18;;;;;;;17.30;64.28;101690.06;5095975;28;20036;-55
2022/07/05 05:10:05;;;;;;;15.50;4.90;;;;;;;17.27;63.07;101693.91;5096106;28;20540;-52
2022/07/05 05:12:32;;;;;;;13.10;4.90;;;;;;;17.25;63.12;101689.75;5096356;28;20068;-49
2022/07/05 05:14:59;;;;;;;14.30;4.95;;;;;;;17.33;63.02;101692.38;5096301;28;20047;-52
2022/07/05 05:17:33;;;;;;;17.92;5.40;;;;;;;17.33;62.95;101699.59;5095916;28;20093;-52
2022/07/05 05:20:00;;;;;;;19.10;5.72;;;;;;;17.40;63.48;101703.25;5095780;28;20040;-50
2022/07/05 05:22:26;;;;;;;14.27;5.70;;;;;;;17.32;63.16;101701.44;5096019;28;20040;-49
2022/07/05 05:24:53;;;;;;;12.60;5.40;;;;;;;17.28;64.14;101708.16;5095981;28;20048;-48
2022/07/05 05:27:20;;;;;;;14.70;5.47;;;;;;;17.32;64.42;101700.59;5095602;28;20040;-51
2022/07/05 05:29:47;;;;;;;17.52;5.80;;;;;;;17.34;64.15;101704.78;5095639;28;20040;-50
2022/07/05 05:32:13;;;;;;;16.98;6.00;;;;;;;17.36;64.37;101708.13;5095505;28;20133;-49
2022/07/05 05:34:40;;;;;;;15.23;5.40;;;;;;;17.24;64.62;101704.97;5092441;28;20074;-51
2022/07/05 05:37:07;;;;;;;14.95;5.38;;;;;;;17.23;64.74;101700.63;5094133;28;20423;-49
2022/07/05 05:39:33;;;;;;;18.17;5.60;;;;;;;17.27;65.12;101711.84;5095914;28;20047;-50
2022/07/05 05:42:01;;;;;;;15.20;5.35;;;;;;;17.25;65.01;101708.50;5077277;28;20481;-52
2022/07/05 05:44:27;;;;;;;18.45;5.50;;;;;;;17.27;64.63;101711.84;5095195;28;20398;-49
2022/07/05 05:46:54;;;;;;;13.57;5.45;;;;;;;17.38;64.38;101708.78;5095536;28;20044;-51
2022/07/05 05:49:21;;;;;;;11.90;5.32;;;;;;;17.40;65.24;101714.78;5094981;28;20047;-48
2022/07/05 05:51:47;;;;;;;16.65;5.57;;;;;;;17.36;63.70;101712.66;5095255;28;20040;-48
2022/07/05 05:54:14;;;;;;;13.98;5.35;;;;;;;17.47;63.70;101714.94;5095007;28;20040;-49
2022/07/05 05:56:41;;;;;;;14.98;5.18;;;;;;;17.54;62.65;101712.41;5095386;28;20056;-51
2022/07/05 05:59:08;;;;;;;16.63;5.68;;;;;;;17.63;63.09;101722.06;5095346;28;20055;-50
2022/07/05 06:01:35;;;;;;;13.57;5.57;;;;;;;17.72;62.44;101723.69;5094873;28;20043;-49
2022/07/05 06:04:01;;;;;;;14.77;5.60;;;;;;;17.72;62.75;101718.31;5094349;28;20105;-51
2022/07/05 06:06:28;;;;;;;11.73;5.05;;;;;;;17.73;62.26;101727.19;5094918;28;20047;-48
2022/07/05 06:08:55;;;;;;;17.73;5.20;;;;;;;17.91;60.52;101727.78;5095064;28;20508;-48
2022/07/05 06:11:23;;;;;;;16.48;5.60;;;;;;;17.73;61.61;101725.34;5095133;28;20048;-49
2022/07/05 06:13:49;;;;;;;14.65;5.40;;;;;;;17.70;61.28;101732.91;5087364;28;20036;-49
2022/07/05 06:16:16;;;;;;;15.23;5.28;;;;;;;17.78;61.64;101728.34;5074143;28;20036;-50
2022/07/05 06:18:43;;;;;;;13.70;4.72;;;;;;;17.86;62.44;101738.19;5074229;28;20515;-51
2022/07/05 06:21:09;;;;;;;12.20;5.65;;;;;;;17.91;61.69;101740.38;5074363;28;20159;-52
2022/07/05 06:23:37;;;;;;;11.98;5.22;;;;;;;17.93;62.90;101733.78;5074298;28;20044;-50
2022/07/05 06:26:04;;;;;;;20.70;5.93;;;;;;;18.06;60.13;101741.25;5074434;28;20044;-52
2022/07/05 06:28:32;;;;;;;16.63;4.93;;;;;;;17.95;61.11;101742.50;5074396;28;20056;-50
2022/07/05 06:30:59;;;;;;;15.57;5.40;;;;;;;18.08;59.96;101749.13;5090683;28;20040;-52
2022/07/05 06:33:27;;;;;;;14.85;5.85;;;;;;;18.19;59.86;101746.00;5094289;28;20486;-50
2022/07/05 06:35:54;;;;;;;13.10;4.78;;;;;;;18.08;59.56;101741.94;5094639;28;20494;-50
2022/07/05 06:38:21;;;;;;;22.35;5.30;;;;;;;18.07;59.05;101744.78;5094417;28;20493;-51
2022/07/05 06:40:48;;;;;;;15.23;4.88;;;;;;;18.02;59.34;101748.00;5094485;28;20044;-50
2022/07/05 06:43:14;;;;;;;13.07;4.07;;;;;;;18.11;59.63;101748.78;5093491;28;20063;-52
2022/07/05 06:46:01;;;;;;;11.35;4.05;;;;;;;18.18;58.36;101752.41;5079105;28;20058;-49
2022/07/05 06:48:28;;;;;;;14.68;4.50;;;;;;;18.13;58.07;101757.50;5093947;28;20059;-51
2022/07/05 06:50:55;;;;;;;16.13;4.32;;;;;;;18.25;58.67;101753.38;5082382;28;20049;-49
2022/07/05 06:53:21;;;;;;;26.27;4.57;;;;;;;18.27;59.03;101758.56;5089811;28;20047;-49
2022/07/05 06:55:48;;;;;;;16.70;4.82;;;;;;;18.30;58.10;101759.03;5093981;28;20071;-50
2022/07/05 06:58:20;;;;;;;17.00;4.90;;;;;;;18.37;57.86;101761.81;5099415;28;20044;-50
2022/07/05 07:00:47;;;;;;;17.95;4.30;;;;;;;18.44;57.32;101754.72;5097983;28;20069;-45
2022/07/05 07:03:34;;;;;;;13.57;4.45;;;;;;;18.54;57.86;101757.16;5108295;28;20032;-44
2022/07/05 07:06:21;;;;;;;14.05;4.60;;;;;;;18.61;57.21;101763.47;5090721;28;20067;-44
2022/07/05 07:09:20;;;;;;;13.82;5.32;;;;;;;18.62;57.19;101757.06;5093256;28;20049;-45
2022/07/05 07:11:34;;;;;;;27.67;5.28;;;;;;;18.65;56.42;101769.31;5099898;28;20444;-44
2022/07/05 07:14:01;;;;;;;21.88;6.25;;;;;;;18.70;55.83;101769.59;5105825;28;20114;-44
2022/07/05 07:16:28;;;;;;;23.55;5.88;;;;;;;18.71;56.42;101769.41;5109459;28;20052;-44
2022/07/05 07:18:56;;;;;;;19.92;6.50;;;;;;;18.67;56.63;101762.75;5100095;28;20048;-44
2022/07/05 07:21:44;;;;;;;23.95;6.63;;;;;;;18.64;57.38;101763.09;5108770;28;20554;-45
2022/07/05 07:24:11;;;;;;;18.90;6.53;;;;;;;18.72;58.19;101762.16;5097526;28;20046;-44
2022/07/05 07:27:02;;;;;;;19.02;6.07;;;;;;;18.84;57.50;101770.66;5108262;28;20404;-45
2022/07/05 07:29:25;;;;;;;23.25;6.68;;;;;;;18.78;55.17;101775.72;5108301;28;20043;-45
2022/07/05 07:31:52;;;;;;;23.20;7.60;;;;;;;18.85;54.93;101773.19;5105187;28;20100;-44
2022/07/05 07:34:19;;;;;;;24.15;6.47;;;;;;;19.04;53.79;101769.09;5098671;28;20044;-44
2022/07/05 07:36:45;;;;;;;22.75;5.78;;;;;;;19.04;54.84;101774.47;5109279;28;20085;-43
2022/07/05 07:39:12;;;;;;;29.25;8.88;;;;;;;19.01;54.14;101777.56;5099397;28;20040;-45
2022/07/05 07:41:40;;;;;;;15.95;5.18;;;;;;;18.91;52.33;101777.81;5104359;28;20052;-46
2022/07/05 07:44:06;;;;;;;23.33;6.00;;;;;;;18.95;53.25;101775.59;5095425;28;20043;-44
2022/07/05 07:46:33;;;;;;;20.83;5.88;;;;;;;18.98;53.96;101770.66;5100377;28;20043;-46
2022/07/05 07:49:00;;;;;;;21.27;5.80;;;;;;;19.04;54.67;101770.97;5097589;28;20512;-45
2022/07/05 07:51:27;;;;;;;17.30;5.28;;;;;;;19.10;54.47;101776.44;5091359;28;20056;-46
2022/07/05 07:53:54;;;;;;;18.58;4.95;;;;;;;19.16;53.63;101785.63;5089187;28;20036;-44
2022/07/05 07:56:28;;;;;;;17.88;5.60;;;;;;;19.21;52.92;101785.03;5092750;28;20055;-46
2022/07/05 07:58:55;;;;;;;18.77;5.10;;;;;;;19.44;51.92;101783.09;5099833;28;20447;-45
2022/07/05 08:01:22;;;;;;;17.83;5.10;;;;;;;19.55;52.28;101787.16;5102058;28;20050;-44
2022/07/05 08:03:49;;;;;;;15.13;4.47;;;;;;;19.51;50.84;101793.94;5090347;28;20047;-45
2022/07/05 08:06:16;;;;;;;17.20;3.97;;;;;;;19.48;49.59;101797.00;5081299;28;20121;-45
2022/07/05 08:08:44;;;;;;;13.30;4.38;;;;;;;19.50;50.47;101795.81;5087012;28;20259;-44
2022/07/05 08:11:12;;;;;;;13.10;4.22;;;;;;;19.63;47.96;101786.19;5078875;28;20043;-44
2022/07/05 08:13:42;;;;;;;13.52;3.88;;;;;;;19.66;49.07;101778.59;5085971;28;20052;-45
2022/07/05 08:16:10;;;;;;;8.93;3.55;;;;;;;19.61;48.13;101785.56;5086266;28;20052;-44
2022/07/05 08:21:31;;;;;;;12.55;3.30;;;;;;;20.14;47.76;101780.81;5096135;28;20473;-44
2022/07/05 08:23:59;;;;;;;12.02;4.07;;;;;;;19.87;48.32;101785.91;5085418;28;20044;-45
2022/07/05 08:26:27;;;;;;;18.75;4.40;;;;;;;19.96;48.48;101785.81;5081462;28;20095;-45
2022/07/05 08:28:54;;;;;;;12.55;3.75;;;;;;;20.22;47.43;101782.53;5094597;28;20062;-45
2022/07/05 08:31:35;;;;;;;12.75;4.35;;;;;;;20.32;46.61;101789.28;5091801;28;20036;-44
2022/07/05 08:34:02;;;;;;;11.57;3.95;;;;;;;20.24;48.43;101783.16;5110397;28;20497;-46
2022/07/05 08:36:29;;;;;;;11.55;3.42;;;;;;;20.25;47.50;101782.97;5088982;28;20048;-46
2022/07/05 08:38:56;;;;;;;14.32;3.67;;;;;;;20.27;48.03;101780.09;5092092;28;20126;-47
2022/07/05 08:41:24;;;;;;;16.23;3.60;;;;;;;20.35;47.05;101773.75;5090014;28;20436;-47
2022/07/05 08:43:52;;;;;;;8.80;3.08;;;;;;;20.57;47.24;101771.84;5096502;28;20044;-45
2022/07/05 08:46:20;;;;;;;16.30;3.42;;;;;;;20.70;45.94;101772.81;5088281;28;20498;-44
2022/07/05 08:48:49;;;;;;;9.48;2.90;;;;;;;20.93;45.44;101774.41;5092662;28;20060;-44
2022/07/05 08:51:18;;;;;;;15.07;3.17;;;;;;;20.99;44.94;101775.47;5086428;28;20485;-44
2022/07/05 08:53:45;;;;;;;10.90;2.90;;;;;;;20.97;45.17;101777.56;5090882;28;20051;-45
2022/07/05 08:56:13;;;;;;;10.10;3.45;;;;;;;21.11;44.26;101782.00;5091877;28;20178;-44
2022/07/05 08:58:44;;;;;;;9.73;3.67;;;;;;;20.94;45.15;101781.50;5082471;28;20068;-44
2022/07/05 09:01:13;;;;;;;16.20;3.88;;;;;;;20.80;44.67;101785.13;5091248;28;20097;-44
2022/07/05 09:03:48;;;;;;;14.93;3.95;;;;;;;20.74;45.21;101781.34;5092276;28;20580;-44
2022/07/05 09:06:20;;;;;;;12.57;3.33;;;;;;;20.65;45.37;101793.31;5095163;28;20066;-44
2022/07/05 09:08:48;;;;;;;12.25;3.17;;;;;;;20.75;46.72;101787.56;5082949;28;20048;-44
2022/07/05 09:11:16;;;;;;;14.70;3.28;;;;;;;20.71;46.61;101785.25;5097562;28;20093;-44
2022/07/05 09:13:49;;;;;;;14.68;3.20;;;;;;;20.81;46.45;101784.94;5089954;28;20166;-44
2022/07/05 09:16:30;;;;;;;13.70;2.90;;;;;;;21.00;44.69;101790.66;5089224;28;20036;-44
2022/07/05 09:19:05;;;;;;;9.02;3.10;;;;;;;21.02;45.35;101786.72;5104869;28;20077;-44
2022/07/05 09:21:32;;;;;;;8.63;2.90;;;;;;;21.16;45.63;101795.72;5087639;28;20544;-45
2022/07/05 09:24:04;;;;;;;14.43;2.92;;;;;;;21.34;43.39;101784.41;5087366;28;20028;-45
2022/07/05 09:29:15;;;;;;;13.20;2.85;;;;;;;21.29;45.67;101792.25;5049379;28;20412;-44
2022/07/05 09:32:02;;;;;;;11.63;3.30;;;;;;;21.22;44.61;101784.13;5036832;28;20072;-44
2022/07/05 09:34:30;;;;;;;10.70;3.40;;;;;;;21.36;43.93;101789.59;5040259;28;20710;-43
2022/07/05 09:37:01;;;;;;;9.40;2.92;;;;;;;21.27;44.06;101791.63;5042241;28;20388;-44
2022/07/05 09:42:20;;;;;;;13.25;3.35;;;;;;;21.35;45.16;101779.84;5076683;27;20904;-44
2022/07/05 09:44:49;;;;;;;8.60;2.85;;;;;;;21.69;44.38;101789.78;5059562;28;20048;-45
2022/07/05 09:47:18;;;;;;;10.32;3.00;;;;;;;21.77;43.73;101783.34;5060884;28;20445;-46
2022/07/05 09:49:48;;;;;;;10.73;3.15;;;;;;;22.10;42.98;101788.00;5069793;28;20071;-44
2022/07/05 09:52:38;;;;;;;9.98;2.78;;;;;;;22.25;42.87;101780.53;5064520;28;20086;-44
2022/07/05 09:55:07;;;;;;;12.82;3.28;;;;;;;22.47;43.57;101781.22;5057665;28;20402;-45
2022/07/05 09:57:36;;;;;;;10.35;3.40;;;;;;;22.48;42.14;101790.13;5046802;28;20067;-45
2022/07/05 10:00:14;;;;;;;10.35;2.95;;;;;;;22.02;42.51;101784.44;5070238;28;20044;-45
2022/07/05 10:02:45;;;;;;;16.17;3.00;;;;;;;22.02;43.48;101784.44;5074910;28;20040;-46
2022/07/05 10:05:16;;;;;;;8.57;2.60;;;;;;;21.92;43.14;101788.56;5060122;28;20582;-44
2022/07/05 10:07:45;;;;;;;13.85;2.90;;;;;;;22.17;43.12;101797.75;5083768;28;20044;-45
2022/07/05 10:10:14;;;;;;;17.10;3.65;;;;;;;21.89;41.81;101789.81;5082079;28;20502;-45
2022/07/05 10:12:43;;;;;;;16.58;5.45;;;;;;;22.22;42.63;101802.56;5081890;28;20089;-45
2022/07/05 10:15:13;;;;;;;12.45;3.40;;;;;;;22.58;41.50;101791.38;5077602;28;20098;-47
2022/07/05 10:17:43;;;;;;;14.50;3.10;;;;;;;22.32;41.15;101788.66;5070896;28;20041;-45
2022/07/05 10:20:25;;;;;;;13.02;2.78;;;;;;;22.49;39.57;101795.34;5068759;28;20047;-46
2022/07/05 10:22:52;;;;;;;10.40;2.80;;;;;;;22.40;39.80;101786.59;5054269;28;20131;-48
2022/07/05 10:25:20;;;;;;;9.45;2.92;;;;;;;22.35;41.29;101785.56;5081195;28;20426;-47
2022/07/05 10:27:47;;;;;;;14.63;2.70;;;;;;;22.23;41.04;101790.72;5080315;28;20383;-48
2022/07/05 10:30:15;;;;;;;15.57;2.78;;;;;;;22.39;40.67;101786.81;5062906;28;20107;-46
2022/07/05 10:32:42;;;;;;;10.43;2.58;;;;;;;22.61;39.72;101785.56;5080868;28;20465;-46
2022/07/05 10:35:09;;;;;;;10.70;2.80;;;;;;;22.84;38.92;101787.00;5065956;28;20467;-46
2022/07/05 10:37:36;;;;;;;9.57;2.70;;;;;;;23.02;39.16;101778.22;5081614;28;20055;-45
2022/07/05 10:40:05;;;;;;;8.23;2.40;;;;;;;23.15;37.83;101790.91;5081389;28;20072;-47
2022/07/05 10:42:37;;;;;;;10.75;2.45;;;;;;;23.40;36.57;101791.03;5072935;28;20041;-47
2022/07/05 10:45:31;;;;;;;12.85;2.70;;;;;;;23.56;37.23;101782.44;5079992;28;20052;-47
2022/07/05 10:48:16;;;;;;;16.73;2.40;;;;;;;23.55;36.13;101785.34;5097882;28;20044;-45
2022/07/05 10:51:07;;;;;;;7.55;2.45;;;;;;;23.56;37.45;101779.72;5078395;28;20127;-45
2022/07/05 10:56:14;;;;;;;8.68;2.80;;;;;;;23.09;37.80;101776.38;5105700;27;20459;-46
2022/07/05 10:58:43;;;;;;;11.43;2.63;;;;;;;23.45;36.64;101779.56;5111864;27;20061;-45
2022/07/05 11:04:10;;;;;;;11.50;2.90;;;;;;;23.11;38.54;101782.38;5092135;27;20385;-46
2022/07/05 11:06:43;;;;;;;12.90;2.90;;;;;;;23.07;38.46;101777.63;5107247;28;20039;-45
2022/07/05 11:14:31;;;;;;;8.38;2.88;;;;;;;23.17;38.59;101783.41;5100392;27;20396;-49
2022/07/05 11:17:22;;;;;;;15.50;3.50;;;;;;;23.25;40.09;101782.34;5104386;28;20076;-52
2022/07/05 11:20:26;;;;;;;13.13;2.90;;;;;;;22.97;39.27;101772.59;5109480;28;20060;-49
2022/07/05 11:23:05;;;;;;;11.80;3.30;;;;;;;23.05;39.43;101780.53;5115176;28;20463;-49
2022/07/05 11:25:36;;;;;;;10.55;3.60;;;;;;;23.24;37.37;101778.81;5109538;28;20066;-51
2022/07/05 11:28:23;;;;;;;11.43;3.00;;;;;;;23.25;37.20;101785.03;5092507;28;20050;-50
2022/07/05 11:30:59;;;;;;;11.60;3.05;;;;;;;23.18;36.96;101785.09;5084248;28;20544;-53
2022/07/05 11:33:30;;;;;;;11.85;3.13;;;;;;;23.13;36.85;101790.31;5108207;28;20541;-50
2022/07/05 11:35:57;;;;;;;12.73;3.30;;;;;;;22.97;37.38;101772.59;5085612;28;20054;-51
2022/07/05 11:38:24;;;;;;;10.63;2.90;;;;;;;23.25;36.78;101774.22;5095763;28;20125;-53
2022/07/05 11:40:54;;;;;;;11.30;3.47;;;;;;;23.64;36.80;101769.69;5098392;28;20090;-50
2022/07/05 11:43:27;;;;;;;16.33;2.85;;;;;;;23.66;37.03;101768.41;5104279;28;20047;-50
2022/07/05 11:45:58;;;;;;;9.48;3.28;;;;;;;23.61;36.10;101768.22;5093104;28;20041;-50
2022/07/05 11:48:29;;;;;;;12.47;3.50;;;;;;;23.40;36.85;101763.97;5087131;28;20037;-49